Time;durP1;ratioP1;P1;durP2;ratioP2;P2;SDS_P1;SDS_P2;PMS_P1;PMS_P2;Temp;Humidity;BMP_temperature;BMP_pressure;BME280_temperature;BME280_humidity;BME280_pressure;Samples;Min_cycle;Max_cycle;Signal;HPM_P1;HPM_P2
2021/12/11 00:01:39;;;;;;;30.40;9.50;;;;;;;16.11;59.75;101046.58;1485915;96;21629;-67
2021/12/11 00:04:03;;;;;;;21.23;9.05;;;;;;;16.14;59.82;101040.73;1408442;101;21594;-66
2021/12/11 00:06:37;;;;;;;23.55;8.38;;;;;;;16.17;59.80;101037.14;1408742;101;21204;-66
2021/12/11 00:09:24;;;;;;;29.77;9.30;;;;;;;16.17;59.78;101038.00;1389613;101;21159;-66
2021/12/11 00:11:55;;;;;;;27.10;9.48;;;;;;;16.17;59.87;101051.13;1408104;101;21204;-67
2021/12/11 00:14:22;;;;;;;25.02;7.62;;;;;;;16.16;59.96;101046.78;1413713;100;21682;-67
2021/12/11 00:16:48;;;;;;;22.30;7.95;;;;;;;16.14;60.12;101040.73;1427680;100;21404;-67
2021/12/11 00:19:28;;;;;;;32.15;9.68;;;;;;;16.14;60.22;101035.48;1428059;100;21110;-67
2021/12/11 00:22:08;;;;;;;25.88;9.88;;;;;;;16.15;60.30;101037.21;1427327;100;21078;-66
2021/12/11 00:24:36;;;;;;;21.33;8.88;;;;;;;16.15;60.43;101040.29;1420427;100;21121;-67
2021/12/11 00:27:08;;;;;;;25.43;8.90;;;;;;;16.17;60.50;101041.94;1419223;101;21087;-67
2021/12/11 00:29:35;;;;;;;26.87;9.23;;;;;;;16.17;60.49;101045.88;1403984;100;21141;-67
2021/12/11 00:32:13;;;;;;;26.62;9.83;;;;;;;16.19;60.49;101045.81;1460816;97;21116;-67
2021/12/11 00:34:43;;;;;;;25.08;7.95;;;;;;;16.19;60.51;101036.17;1450303;99;21097;-67
2021/12/11 00:37:11;;;;;;;23.83;8.33;;;;;;;16.21;60.58;101033.02;1469138;96;21104;-67
2021/12/11 00:39:57;;;;;;;25.60;7.75;;;;;;;16.21;60.59;101039.59;1470000;96;21080;-67
2021/12/11 00:42:30;;;;;;;23.95;8.00;;;;;;;16.21;60.69;101036.96;1534288;92;21671;-67
2021/12/11 00:44:54;;;;;;;23.10;7.40;;;;;;;16.24;60.69;101036.82;1532742;92;21105;-67
2021/12/11 00:47:29;;;;;;;24.23;7.58;;;;;;;16.26;60.67;101043.31;1522490;93;21095;-67
2021/12/11 00:50:00;;;;;;;18.10;7.28;;;;;;;16.26;60.61;101038.92;1543447;91;21094;-67
2021/12/11 00:52:41;;;;;;;24.10;7.42;;;;;;;16.28;60.53;101033.16;1539864;92;21099;-68
2021/12/11 00:55:24;;;;;;;18.67;7.92;;;;;;;16.29;60.63;101037.50;1539741;93;21075;-68
2021/12/11 00:58:04;;;;;;;28.95;7.95;;;;;;;16.30;60.58;101035.26;1517599;93;21654;-68
2021/12/11 01:00:44;;;;;;;22.45;7.60;;;;;;;16.31;60.53;101032.18;1536050;93;21567;-67
2021/12/11 01:03:13;;;;;;;20.95;8.15;;;;;;;16.32;60.57;101027.80;1535938;93;21115;-67
2021/12/11 01:05:44;;;;;;;23.00;7.95;;;;;;;16.29;60.54;101027.00;1539284;93;21087;-68
2021/12/11 01:08:15;;;;;;;25.15;8.08;;;;;;;16.30;60.52;101020.81;1545627;91;21095;-67
2021/12/11 01:10:41;;;;;;;20.45;8.05;;;;;;;16.30;60.53;101022.12;1544137;91;21063;-67
2021/12/11 01:13:10;;;;;;;24.23;7.53;;;;;;;16.29;60.62;101016.50;1524547;93;21635;-67
2021/12/11 01:15:44;;;;;;;23.22;7.62;;;;;;;16.28;60.67;101016.08;1532271;93;21134;-67
2021/12/11 01:21:04;;;;;;;21.95;7.03;;;;;;;16.27;60.62;101020.95;1530196;93;21186;-68
2021/12/11 01:26:04;;;;;;;17.60;7.37;;;;;;;16.24;60.73;101014.50;1527294;91;21138;-68
2021/12/11 01:28:31;;;;;;;27.00;8.08;;;;;;;16.26;60.70;101018.38;1567370;90;21057;-68
2021/12/11 01:30:58;;;;;;;24.67;8.28;;;;;;;16.25;60.69;101012.29;1569141;90;21624;-68
2021/12/11 01:33:25;;;;;;;26.57;7.90;;;;;;;16.24;60.71;101018.44;1583500;90;21496;-68
2021/12/11 01:35:52;;;;;;;24.00;8.85;;;;;;;16.24;60.74;101015.81;1580449;90;21611;-68
2021/12/11 01:38:24;;;;;;;29.10;8.58;;;;;;;16.22;60.77;101012.40;1579441;90;21549;-69
2021/12/11 01:40:56;;;;;;;27.22;8.13;;;;;;;16.20;60.86;101011.61;1578534;90;21121;-68
2021/12/11 01:43:26;;;;;;;23.12;8.35;;;;;;;16.18;61.02;101018.69;1584074;91;21072;-68
2021/12/11 01:45:54;;;;;;;28.12;7.80;;;;;;;16.17;61.15;101024.88;1555922;89;21045;-68
2021/12/11 01:48:26;;;;;;;20.25;7.00;;;;;;;16.16;61.19;101031.03;1580015;89;21261;-68
2021/12/11 01:51:10;;;;;;;20.80;7.45;;;;;;;16.13;61.39;101027.23;1546294;93;21073;-68
2021/12/11 01:53:42;;;;;;;19.73;6.87;;;;;;;16.10;61.53;101022.09;1538206;93;21664;-67
2021/12/11 01:56:13;;;;;;;22.07;7.37;;;;;;;16.11;61.65;101019.02;1542942;92;21079;-68
2021/12/11 01:58:44;;;;;;;22.02;7.05;;;;;;;16.11;61.65;101015.08;1536073;93;21073;-69
2021/12/11 02:01:16;;;;;;;27.80;7.70;;;;;;;16.09;61.74;101015.11;1488905;96;21146;-68
2021/12/11 02:03:43;;;;;;;23.22;7.12;;;;;;;16.09;61.83;101001.98;1450879;98;21705;-68
2021/12/11 02:06:09;;;;;;;26.50;6.33;;;;;;;16.10;61.84;100996.28;1457486;97;21660;-69
2021/12/11 02:08:39;;;;;;;23.77;6.97;;;;;;;16.09;61.87;100995.42;1448203;98;21197;-68
2021/12/11 02:11:20;;;;;;;27.35;7.62;;;;;;;16.09;61.90;100994.11;1456411;97;21115;-68
2021/12/11 02:14:01;;;;;;;23.80;7.67;;;;;;;16.09;61.92;100985.41;1452647;97;21214;-69
2021/12/11 02:16:45;;;;;;;22.67;6.47;;;;;;;16.07;61.91;100994.63;1448565;98;21124;-69
2021/12/11 02:19:29;;;;;;;18.90;6.50;;;;;;;16.06;61.89;100999.95;1440035;99;21096;-69
2021/12/11 02:21:57;;;;;;;22.50;6.15;;;;;;;16.03;61.99;100994.84;1444545;97;21137;-69
2021/12/11 02:24:25;;;;;;;21.93;6.33;;;;;;;16.01;62.10;100987.01;1449997;97;21169;-69
2021/12/11 02:26:54;;;;;;;17.87;5.12;;;;;;;16.03;62.08;100986.48;1453615;97;21153;-68
2021/12/11 02:29:31;;;;;;;27.27;6.53;;;;;;;16.05;61.92;100985.97;1453211;98;21076;-68
2021/12/11 02:32:19;;;;;;;21.62;6.10;;;;;;;16.08;61.78;100985.86;1452107;98;21113;-68
2021/12/11 02:34:57;;;;;;;24.98;6.12;;;;;;;16.10;61.65;100989.27;1459192;97;21159;-68
2021/12/11 02:37:43;;;;;;;17.45;5.80;;;;;;;16.11;61.63;100977.88;1454606;97;21156;-65
2021/12/11 02:40:29;;;;;;;18.73;5.17;;;;;;;16.10;61.60;100985.34;1450756;97;21210;-66
2021/12/11 02:43:10;;;;;;;17.98;4.92;;;;;;;16.11;61.49;100991.00;1456809;97;21124;-65
2021/12/11 02:45:42;;;;;;;19.57;5.47;;;;;;;16.09;61.57;100987.55;1418380;100;21202;-65
2021/12/11 02:48:26;;;;;;;21.73;4.90;;;;;;;16.09;61.45;100994.11;1344578;106;21214;-66
2021/12/11 02:50:58;;;;;;;12.88;3.85;;;;;;;16.09;61.42;100995.91;1327076;106;21128;-66
2021/12/11 02:53:48;;;;;;;19.23;3.98;;;;;;;16.08;61.22;100993.73;1283532;111;21282;-66
2021/12/11 02:56:23;;;;;;;11.15;3.17;;;;;;;16.10;61.10;101001.54;1276815;109;21283;-66
2021/12/11 02:58:53;;;;;;;22.40;5.08;;;;;;;16.09;61.04;100992.80;1306876;107;21236;-66
2021/12/11 03:01:40;;;;;;;16.37;4.42;;;;;;;16.11;60.86;100993.63;1348025;105;21183;-66
2021/12/11 03:04:23;;;;;;;13.20;3.70;;;;;;;16.12;60.70;101001.88;1317457;107;21229;-67
2021/12/11 03:06:49;;;;;;;15.32;3.10;;;;;;;16.11;60.72;101005.89;1316861;107;21662;-63
2021/12/11 03:09:20;;;;;;;16.55;3.33;;;;;;;16.10;60.62;101011.59;1317521;107;21751;-65
2021/12/11 03:11:47;;;;;;;15.08;3.85;;;;;;;16.09;60.62;101012.48;1301015;109;21336;-63
2021/12/11 03:14:15;;;;;;;13.25;3.60;;;;;;;16.10;60.50;101018.59;1280094;111;21217;-69
2021/12/11 03:16:42;;;;;;;14.33;3.58;;;;;;;16.05;60.54;101014.84;1281520;111;21164;-61
2021/12/11 03:19:11;;;;;;;17.67;3.90;;;;;;;16.02;60.59;101017.60;1281544;111;21680;-64
2021/12/11 03:21:38;;;;;;;17.10;4.35;;;;;;;15.98;60.64;101012.08;1282464;110;21199;-64
2021/12/11 03:24:06;;;;;;;17.07;3.47;;;;;;;15.94;60.79;101013.13;1282555;110;21188;-64
2021/12/11 03:26:33;;;;;;;19.52;4.17;;;;;;;15.94;60.87;101014.88;1281107;110;21679;-64
2021/12/11 03:28:59;;;;;;;15.70;3.85;;;;;;;15.93;60.86;101014.50;1281337;110;21183;-64
2021/12/11 03:31:26;;;;;;;16.15;4.25;;;;;;;15.93;60.86;101009.25;1265927;112;21200;-64
2021/12/11 03:33:56;;;;;;;14.78;5.28;;;;;;;15.94;60.83;101017.05;1262077;113;21212;-63
2021/12/11 03:36:24;;;;;;;16.35;3.05;;;;;;;15.93;60.72;101009.25;1284394;109;21175;-65
2021/12/11 03:38:56;;;;;;;12.70;3.98;;;;;;;15.91;60.66;101014.54;1307225;109;21259;-63
2021/12/11 03:41:23;;;;;;;;;;;;;;;15.90;60.68;101007.59;1306327;109;21144;-67
2021/12/11 03:43:50;;;;;;;13.03;3.50;;;;;;;15.92;60.60;101011.47;1301825;107;20188;-67
2021/12/11 03:46:17;;;;;;;21.15;4.42;;;;;;;15.90;60.54;101010.22;1433086;97;21134;-63
2021/12/11 03:48:48;;;;;;;18.77;4.72;;;;;;;15.90;60.49;101014.61;1443406;97;21109;-64
2021/12/11 03:51:17;;;;;;;24.82;4.87;;;;;;;15.68;61.07;101019.84;1495988;94;21115;-62
2021/12/11 03:53:44;;;;;;;19.32;3.55;;;;;;;15.60;61.24;101011.39;1503789;94;21091;-63
2021/12/11 03:56:12;;;;;;;12.47;3.30;;;;;;;15.56;61.34;101018.15;1536748;91;21085;-70
2021/12/11 03:58:39;;;;;;;19.98;4.40;;;;;;;15.54;61.44;101022.11;1567427;91;21092;-63
2021/12/11 04:01:18;;;;;;;19.82;5.30;;;;;;;15.50;61.54;101028.39;1596383;87;21083;-63
2021/12/11 04:03:46;;;;;;;18.73;4.25;;;;;;;15.49;61.60;101025.38;1616351;87;21191;-63
2021/12/11 04:06:13;;;;;;;17.55;4.58;;;;;;;15.49;61.67;101025.38;1623128;87;21119;-63
2021/12/11 04:08:41;;;;;;;19.87;4.53;;;;;;;15.50;61.78;101030.19;1622807;87;21077;-64
2021/12/11 04:11:15;;;;;;;15.15;4.05;;;;;;;15.49;61.76;101028.01;1623052;87;21653;-64
2021/12/11 04:13:44;;;;;;;18.95;4.05;;;;;;;15.49;61.83;101031.94;1501136;95;21212;-66
2021/12/11 04:16:12;;;;;;;18.77;4.15;;;;;;;15.50;61.82;101036.26;1536463;92;21100;-63
2021/12/11 04:18:39;;;;;;;24.43;5.55;;;;;;;15.52;61.86;101041.47;1526280;92;21164;-66
2021/12/11 04:21:05;;;;;;;18.48;4.70;;;;;;;15.51;61.80;101040.61;1526803;92;21133;-63
2021/12/11 04:23:32;;;;;;;16.95;4.62;;;;;;;15.52;61.83;101035.74;1518837;93;21107;-64
2021/12/11 04:25:59;;;;;;;18.07;4.37;;;;;;;15.52;61.84;101041.47;1524991;92;21091;-64
2021/12/11 04:28:29;;;;;;;22.10;4.72;;;;;;;15.67;61.39;101043.05;1525429;93;21081;-64
2021/12/11 04:31:04;;;;;;;27.45;5.22;;;;;;;15.76;61.07;101046.64;1526398;92;21150;-64
2021/12/11 04:33:28;;;;;;;21.60;4.03;;;;;;;15.79;60.99;101052.20;1520791;92;21119;-62
2021/12/11 04:35:55;;;;;;;20.97;5.20;;;;;;;15.80;60.83;101045.61;1520623;92;21082;-63
2021/12/11 04:38:21;;;;;;;20.10;4.72;;;;;;;15.79;60.75;101049.13;1514883;93;21118;-64
2021/12/11 04:40:55;;;;;;;17.42;4.60;;;;;;;15.77;60.69;101048.34;1510831;93;21615;-61
2021/12/11 04:43:21;;;;;;;20.02;5.37;;;;;;;15.76;60.72;101036.15;1504880;93;21658;-63
2021/12/11 04:46:01;;;;;;;21.62;6.35;;;;;;;15.74;60.65;101043.22;1527001;92;21098;-64
2021/12/11 04:48:52;;;;;;;19.85;5.40;;;;;;;15.71;60.68;101047.27;1543314;90;21096;-66
2021/12/11 04:53:53;;;;;;;17.73;3.98;;;;;;;15.68;60.56;101050.47;1515601;94;21137;-64
2021/12/11 05:01:33;;;;;;;19.42;5.03;;;;;;;15.69;60.10;101053.02;1572974;91;21568;-63
2021/12/11 05:14:09;;;;;;;20.60;5.10;;;;;;;15.71;58.78;101054.27;1606093;88;21097;-62
2021/12/11 05:16:36;;;;;;;22.85;5.78;;;;;;;15.68;58.63;101051.78;1609564;88;21598;-66
2021/12/11 05:19:03;;;;;;;21.12;5.67;;;;;;;15.65;58.56;101051.88;1610760;88;21122;-63
2021/12/11 05:21:30;;;;;;;20.95;6.33;;;;;;;15.64;58.46;101055.43;1611497;88;21102;-63
2021/12/11 05:23:57;;;;;;;21.73;5.05;;;;;;;15.61;58.32;101060.33;1613905;88;21566;-63
2021/12/11 05:26:23;;;;;;;20.80;4.70;;;;;;;15.59;58.09;101075.27;1608549;88;21143;-63
2021/12/11 05:28:52;;;;;;;16.35;4.35;;;;;;;15.55;58.00;101076.75;1610940;88;21105;-62
2021/12/11 05:31:18;;;;;;;17.95;4.55;;;;;;;15.52;57.98;101086.05;1609855;88;21052;-61
2021/12/11 05:33:45;;;;;;;16.93;4.50;;;;;;;15.48;57.98;101094.47;1608378;88;21528;-62
2021/12/11 05:36:16;;;;;;;15.00;4.17;;;;;;;15.47;58.05;101094.09;1612968;88;21085;-62
2021/12/11 05:38:43;;;;;;;14.15;3.80;;;;;;;15.44;58.04;101094.19;1602359;88;21565;-63
2021/12/11 05:41:11;;;;;;;7.65;2.92;;;;;;;15.43;58.00;101093.80;1610101;88;21062;-63
2021/12/11 05:43:38;;;;;;;13.28;3.90;;;;;;;15.41;57.81;101099.52;1610615;88;21031;-63
2021/12/11 05:46:06;;;;;;;16.40;4.17;;;;;;;15.39;57.47;101109.21;1611562;88;21103;-61
2021/12/11 05:48:32;;;;;;;11.43;3.50;;;;;;;15.35;57.28;101118.09;1611129;88;21540;-61
2021/12/11 05:51:01;;;;;;;14.83;3.67;;;;;;;15.30;57.17;101112.14;1610149;88;21659;-64
2021/12/11 05:53:31;;;;;;;10.40;3.25;;;;;;;15.26;57.07;101110.55;1611886;88;21072;-62
2021/12/11 05:55:58;;;;;;;9.15;3.10;;;;;;;15.22;57.04;101106.31;1609067;88;21089;-62
2021/12/11 05:58:45;;;;;;;10.48;3.40;;;;;;;15.20;57.03;101112.07;1609144;88;21072;-62
2021/12/11 06:00:53;;;;;;;15.48;4.15;;;;;;;15.16;57.17;101111.33;1605277;88;21071;-63
2021/12/11 06:03:20;;;;;;;12.85;3.42;;;;;;;15.14;57.31;101128.02;1609272;88;21059;-63
2021/12/11 06:05:46;;;;;;;12.53;3.45;;;;;;;15.13;57.43;101135.46;1615210;88;21017;-63
2021/12/11 06:08:13;;;;;;;16.15;3.75;;;;;;;15.12;57.67;101144.25;1608243;88;21126;-63
2021/12/11 06:10:40;;;;;;;12.13;3.58;;;;;;;15.11;57.80;101138.59;1621067;87;21079;-61
2021/12/11 06:13:07;;;;;;;11.43;3.33;;;;;;;15.12;57.81;101135.08;1649007;85;21134;-61
2021/12/11 06:15:36;;;;;;;10.82;3.17;;;;;;;15.13;57.53;101133.70;1690513;83;21666;-62
2021/12/11 06:18:03;;;;;;;15.43;3.77;;;;;;;15.15;57.41;101144.12;1682000;84;21679;-63
2021/12/11 06:20:31;;;;;;;14.30;3.77;;;;;;;15.18;57.47;101144.03;1690470;84;21054;-63
2021/12/11 06:22:57;;;;;;;16.00;3.83;;;;;;;15.19;57.27;101137.87;1683751;84;21041;-63
2021/12/11 06:25:28;;;;;;;11.95;4.58;;;;;;;15.19;57.18;101143.11;1678095;84;21049;-61
2021/12/11 06:27:55;;;;;;;7.83;2.77;;;;;;;15.18;57.16;101142.73;1652953;85;21501;-63
2021/12/11 06:30:22;;;;;;;9.13;2.75;;;;;;;15.16;57.26;101140.61;1656821;85;21165;-66
2021/12/11 06:32:49;;;;;;;9.38;3.33;;;;;;;15.17;57.26;101150.17;1641128;85;21101;-67
2021/12/11 06:35:30;;;;;;;12.35;3.62;;;;;;;15.18;57.19;101154.52;1657796;85;21059;-67
2021/12/11 06:37:57;;;;;;;11.43;3.00;;;;;;;15.16;57.19;101151.09;1637174;86;21136;-67
2021/12/11 06:40:25;;;;;;;11.97;3.15;;;;;;;15.14;57.18;101148.98;1641886;86;21090;-65
2021/12/11 06:42:52;;;;;;;9.00;3.10;;;;;;;15.11;57.18;101160.87;1623960;86;21035;-67
2021/12/11 06:45:22;;;;;;;10.43;3.08;;;;;;;15.06;57.09;101164.11;1625729;86;21046;-70
2021/12/11 06:47:49;;;;;;;8.80;2.83;;;;;;;15.01;57.18;101173.44;1630983;87;21134;-67
2021/12/11 06:50:15;;;;;;;8.48;2.58;;;;;;;15.00;57.17;101180.05;1604220;86;21157;-66
2021/12/11 06:52:42;;;;;;;14.43;2.75;;;;;;;14.96;56.90;101174.03;1638295;86;21066;-68
2021/12/11 06:55:09;;;;;;;7.53;2.30;;;;;;;14.94;56.89;101173.70;1632482;87;21585;-65
2021/12/11 06:57:35;;;;;;;10.25;2.77;;;;;;;14.92;56.88;101175.52;1626583;86;21585;-69
2021/12/11 07:00:06;;;;;;;12.50;3.22;;;;;;;14.94;56.92;101184.18;1629279;86;21129;-66
2021/12/11 07:02:33;;;;;;;9.93;3.37;;;;;;;14.98;56.74;101191.87;1635475;86;21109;-65
2021/12/11 07:04:59;;;;;;;8.00;2.80;;;;;;;14.98;56.67;101185.79;1620134;86;21037;-63
2021/12/11 07:07:34;;;;;;;8.10;2.80;;;;;;;14.99;56.65;101199.28;1629048;86;21126;-64
2021/12/11 07:09:55;;;;;;;14.20;2.47;;;;;;;15.00;56.65;101210.19;1637463;86;21153;-63
2021/12/11 07:12:22;;;;;;;6.35;2.37;;;;;;;15.00;56.71;101218.05;1617796;86;21531;-65
2021/12/11 07:14:49;;;;;;;8.60;2.30;;;;;;;15.01;56.82;101217.13;1631192;85;21061;-66
2021/12/11 07:17:15;;;;;;;9.05;2.42;;;;;;;15.03;56.84;101221.86;1656699;85;21116;-67
2021/12/11 07:19:42;;;;;;;11.68;3.33;;;;;;;15.07;56.80;101227.41;1651639;85;21022;-66
2021/12/11 07:22:08;;;;;;;15.88;2.65;;;;;;;15.07;56.64;101224.78;1662405;85;21188;-69
2021/12/11 07:24:44;;;;;;;8.58;2.47;;;;;;;15.08;56.67;101229.13;1675567;84;21039;-65
2021/12/11 07:27:11;;;;;;;8.23;2.33;;;;;;;15.10;56.65;101250.91;1680735;84;21613;-66
2021/12/11 07:29:39;;;;;;;8.58;2.40;;;;;;;15.11;56.73;101256.53;1676771;84;21137;-63
2021/12/11 07:32:08;;;;;;;7.30;3.15;;;;;;;15.11;56.46;101258.71;1678419;84;21023;-65
2021/12/11 07:34:36;;;;;;;9.55;2.85;;;;;;;15.14;56.38;101270.87;1672710;84;21012;-69
2021/12/11 07:37:04;;;;;;;8.80;3.12;;;;;;;15.13;56.40;101270.00;1674973;84;21039;-64
2021/12/11 07:39:30;;;;;;;9.18;2.65;;;;;;;15.15;56.45;101284.36;1683627;84;21087;-68
2021/12/11 07:41:57;;;;;;;9.63;2.60;;;;;;;15.15;56.46;101280.43;1634134;87;21090;-68
2021/12/11 07:44:24;;;;;;;9.70;2.62;;;;;;;15.16;56.54;101290.03;1676328;84;21138;-65
2021/12/11 07:46:51;;;;;;;8.58;3.40;;;;;;;15.16;56.75;101293.52;1671035;84;21058;-68
2021/12/11 07:49:18;;;;;;;8.85;3.15;;;;;;;15.16;56.82;101292.65;1681616;84;21105;-66
2021/12/11 07:51:45;;;;;;;11.88;3.67;;;;;;;15.15;56.86;101293.09;1679238;84;21055;-67
2021/12/11 07:54:11;;;;;;;11.70;3.95;;;;;;;15.17;56.96;101302.21;1684550;84;21035;-63
2021/12/11 07:56:38;;;;;;;7.85;3.33;;;;;;;15.18;57.27;101317.05;1682875;84;21035;-65
2021/12/11 07:59:07;;;;;;;8.80;2.92;;;;;;;15.26;57.30;101321.15;1677386;84;21059;-67
2021/12/11 08:01:36;;;;;;;8.63;3.37;;;;;;;15.34;57.24;101324.38;1685126;84;21070;-65
2021/12/11 08:04:04;;;;;;;9.60;3.30;;;;;;;15.45;57.07;101334.56;1680387;84;21589;-64
2021/12/11 08:06:31;;;;;;;15.98;3.90;;;;;;;15.50;56.97;101327.38;1680711;84;21573;-63
2021/12/11 08:08:59;;;;;;;13.83;4.03;;;;;;;15.56;57.08;101338.15;1683794;84;21035;-66
2021/12/11 08:11:28;;;;;;;14.95;5.00;;;;;;;15.62;56.95;101345.33;1685289;84;21047;-67
2021/12/11 08:13:56;;;;;;;10.63;3.70;;;;;;;15.67;56.81;101346.05;1679941;84;21101;-68
2021/12/11 08:16:26;;;;;;;9.43;3.98;;;;;;;15.71;56.54;101355.53;1681971;84;21061;-68
2021/12/11 08:18:53;;;;;;;9.58;5.12;;;;;;;15.72;56.25;101367.77;1680793;83;21545;-68
2021/12/11 08:21:20;;;;;;;11.60;5.75;;;;;;;15.72;56.07;101367.77;1692307;84;21531;-65
2021/12/11 08:23:53;;;;;;;13.70;6.30;;;;;;;15.71;55.78;101371.28;1686650;83;21113;-70
2021/12/11 08:26:19;;;;;;;14.28;5.85;;;;;;;15.69;55.63;101372.23;1684480;83;21090;-67
2021/12/11 08:28:45;;;;;;;10.98;4.58;;;;;;;15.67;55.72;101367.05;1688924;84;21066;-63
2021/12/11 08:31:14;;;;;;;11.40;4.47;;;;;;;15.66;55.76;101370.56;1674909;84;21098;-67
2021/12/11 08:33:41;;;;;;;8.65;4.90;;;;;;;15.64;55.80;101369.75;1689261;84;21459;-67
2021/12/11 08:36:09;;;;;;;13.20;5.72;;;;;;;15.65;55.74;101371.48;1693902;84;21031;-68
2021/12/11 08:38:36;;;;;;;11.12;4.78;;;;;;;15.67;55.73;101378.84;1689657;84;21015;-68
2021/12/11 08:41:04;;;;;;;15.43;5.08;;;;;;;15.68;55.41;101383.65;1685976;84;21641;-68
2021/12/11 08:43:31;;;;;;;7.67;3.75;;;;;;;15.67;55.40;101381.47;1683129;84;21027;-69
2021/12/11 08:46:09;;;;;;;10.32;3.58;;;;;;;15.67;55.35;101385.41;1684216;84;21015;-68
2021/12/11 08:48:39;;;;;;;10.45;3.75;;;;;;;15.67;55.29;101389.34;1633762;86;21059;-68
2021/12/11 08:51:11;;;;;;;8.33;2.25;;;;;;;15.64;55.22;101392.05;1651314;85;21630;-63
2021/12/11 08:53:38;;;;;;;15.88;2.95;;;;;;;15.64;55.22;101388.12;1621857;86;21086;-64
2021/12/11 08:56:07;;;;;;;11.57;2.58;;;;;;;15.63;55.49;101392.97;1616503;86;21021;-66
2021/12/11 08:58:33;;;;;;;13.65;3.52;;;;;;;15.65;55.35;101387.23;1631828;86;21047;-64
2021/12/11 09:01:30;;;;;;;10.65;3.67;;;;;;;15.67;55.46;101385.86;1625303;87;21076;-64
2021/12/11 09:04:12;;;;;;;14.20;3.85;;;;;;;15.69;55.28;101388.84;1589255;88;21062;-69
2021/12/11 09:06:55;;;;;;;10.75;2.98;;;;;;;15.68;55.37;101394.14;1603540;88;21566;-65
2021/12/11 09:09:30;;;;;;;10.72;2.77;;;;;;;15.69;55.45;101393.22;1598782;89;21903;-64
2021/12/11 09:12:19;;;;;;;13.20;2.72;;;;;;;15.71;55.38;101396.65;1597307;88;21075;-66
2021/12/11 09:14:53;;;;;;;10.08;3.02;;;;;;;15.73;55.12;101394.84;1573477;91;21166;-68
2021/12/11 09:17:28;;;;;;;11.35;3.30;;;;;;;15.75;55.03;101397.82;1517694;94;21136;-65
2021/12/11 09:20:03;;;;;;;11.30;3.62;;;;;;;15.76;54.92;101402.17;1490157;95;21062;-67
2021/12/11 09:22:48;;;;;;;10.95;2.50;;;;;;;15.76;54.90;101400.86;1388689;102;21188;-66
2021/12/11 09:25:28;;;;;;;6.55;1.85;;;;;;;15.77;54.48;101408.26;1395227;102;21560;-68
2021/12/11 09:28:16;;;;;;;6.80;2.77;;;;;;;15.75;54.52;101410.94;1350439;105;21145;-63
2021/12/11 09:30:51;;;;;;;15.08;2.72;;;;;;;15.74;54.58;101401.81;1351327;105;21234;-63
2021/12/11 09:33:23;;;;;;;11.43;4.20;;;;;;;15.74;54.53;101407.06;1352185;105;21264;-64
2021/12/11 09:35:58;;;;;;;9.63;3.08;;;;;;;15.72;54.39;101413.68;1316911;108;21657;-63
2021/12/11 09:38:31;;;;;;;9.93;2.42;;;;;;;15.69;54.49;101412.45;1311446;108;21730;-65
2021/12/11 09:40:58;;;;;;;8.90;2.50;;;;;;;15.66;54.66;101424.34;1327472;107;21220;-67
2021/12/11 09:43:45;;;;;;;8.80;2.65;;;;;;;15.63;54.75;101425.77;1325961;106;21209;-69
2021/12/11 09:46:14;;;;;;;10.43;2.83;;;;;;;15.59;55.00;101426.77;1286685;110;21223;-65
2021/12/11 09:48:41;;;;;;;11.95;2.95;;;;;;;15.57;55.23;101431.21;1289656;110;21185;-64
2021/12/11 09:51:12;;;;;;;8.90;2.90;;;;;;;15.56;55.36;101438.66;1291811;111;21201;-67
2021/12/11 09:53:46;;;;;;;14.07;4.47;;;;;;;15.55;55.55;101430.41;1289055;110;21243;-65
2021/12/11 09:56:21;;;;;;;13.32;3.77;;;;;;;15.58;55.76;101426.83;1290896;110;21201;-71
2021/12/11 09:58:48;;;;;;;10.60;3.37;;;;;;;15.62;56.04;101434.53;1275222;112;21853;-66
2021/12/11 10:01:22;;;;;;;13.98;3.72;;;;;;;15.66;55.92;101430.90;1273503;111;21191;-66
2021/12/11 10:04:06;;;;;;;10.50;3.15;;;;;;;15.72;56.08;101430.73;1250735;114;21720;-64
2021/12/11 10:06:50;;;;;;;17.45;3.75;;;;;;;15.81;55.88;101435.67;1278782;110;21158;-63
2021/12/11 10:09:22;;;;;;;16.32;4.17;;;;;;;15.88;55.96;101420.14;1242131;113;21227;-64
2021/12/11 10:11:53;;;;;;;12.15;3.10;;;;;;;15.96;55.78;101424.67;1246987;114;21231;-69
2021/12/11 10:14:26;;;;;;;6.95;2.83;;;;;;;16.04;55.64;101421.34;1260482;112;21361;-66
2021/12/11 10:16:55;;;;;;;12.20;2.65;;;;;;;16.13;55.16;101419.73;1337403;105;21769;-66
2021/12/11 10:19:29;;;;;;;9.28;2.50;;;;;;;16.20;54.87;101414.66;1366193;102;21204;-63
2021/12/11 10:21:54;;;;;;;10.35;3.35;;;;;;;16.24;54.64;101414.95;1374367;103;21169;-67
2021/12/11 10:24:25;;;;;;;10.95;3.08;;;;;;;16.26;54.47;101423.63;1373440;103;21099;-62
2021/12/11 10:26:53;;;;;;;12.45;3.02;;;;;;;16.29;54.37;101424.85;1407639;98;21191;-66
2021/12/11 10:29:19;;;;;;;9.15;3.22;;;;;;;16.26;54.35;101431.51;1414910;100;21103;-63
2021/12/11 10:31:50;;;;;;;7.78;3.15;;;;;;;16.20;54.52;101434.34;1418842;100;21188;-66
2021/12/11 10:34:20;;;;;;;9.73;2.85;;;;;;;16.16;54.65;101430.11;1437349;98;21134;-69
2021/12/11 10:37:07;;;;;;;9.78;3.08;;;;;;;16.13;54.68;101443.36;1443718;98;21161;-66
2021/12/11 10:39:36;;;;;;;12.15;2.75;;;;;;;16.10;54.72;101447.38;1395145;100;21165;-71
2021/12/11 10:42:04;;;;;;;9.50;2.98;;;;;;;16.07;54.67;101443.53;1404481;98;21082;-62
2021/12/11 10:44:34;;;;;;;12.13;3.50;;;;;;;16.02;54.78;101450.72;1444915;97;21639;-64
2021/12/11 10:47:06;;;;;;;10.98;3.10;;;;;;;15.97;54.90;101457.88;1435401;98;21091;-68
2021/12/11 10:49:33;;;;;;;14.63;3.22;;;;;;;15.93;55.03;101456.27;1457807;97;21135;-63
2021/12/11 10:52:05;;;;;;;7.35;2.90;;;;;;;15.92;55.04;101455.88;1450204;97;21323;-65
2021/12/11 10:54:32;;;;;;;8.48;2.85;;;;;;;15.91;55.20;101458.55;1391455;101;21661;-64
2021/12/11 10:56:58;;;;;;;8.10;2.80;;;;;;;15.93;55.39;101451.02;1433289;98;21558;-65
2021/12/11 10:59:31;;;;;;;14.33;4.55;;;;;;;16.00;55.52;101452.54;1429608;99;21105;-62
2021/12/11 11:02:26;;;;;;;14.35;3.90;;;;;;;16.07;55.50;101448.78;1386687;100;21147;-63
2021/12/11 11:05:05;;;;;;;8.63;2.67;;;;;;;16.14;55.25;101455.56;1401003;100;21174;-66
2021/12/11 11:07:32;;;;;;;7.35;2.55;;;;;;;16.18;54.97;101450.61;1401438;100;21186;-65
2021/12/11 11:10:00;;;;;;;9.73;3.52;;;;;;;16.18;54.79;101446.67;1378282;102;21127;-64
2021/12/11 11:12:28;;;;;;;14.40;3.25;;;;;;;16.17;54.56;101444.97;1398961;100;21154;-66
2021/12/11 11:14:55;;;;;;;11.85;3.40;;;;;;;16.15;54.49;101447.23;1450833;98;22969;-64
2021/12/11 11:17:27;;;;;;;9.28;3.05;;;;;;;16.11;54.50;101445.17;1448613;97;21599;-63
2021/12/11 11:19:57;;;;;;;10.63;3.52;;;;;;;16.09;54.45;101440.40;1435108;98;21170;-66
2021/12/11 11:22:28;;;;;;;9.85;3.40;;;;;;;16.04;54.58;101447.59;1433013;98;21133;-67
2021/12/11 11:25:05;;;;;;;8.53;3.27;;;;;;;16.00;54.80;101452.54;1429001;98;21088;-64
2021/12/11 11:27:32;;;;;;;13.72;3.52;;;;;;;15.93;55.01;101457.57;1442451;98;21101;-63
2021/12/11 11:29:58;;;;;;;14.45;3.37;;;;;;;15.87;55.34;101460.84;1396796;100;21166;-64
2021/12/11 11:32:31;;;;;;;14.13;3.77;;;;;;;15.84;55.66;101461.83;1423666;97;21237;-64
2021/12/11 11:35:10;;;;;;;8.20;3.35;;;;;;;15.88;56.04;101460.81;1415523;98;21457;-66
2021/12/11 11:37:38;;;;;;;12.80;4.30;;;;;;;15.96;56.14;101456.17;1487904;95;21062;-64
2021/12/11 11:40:09;;;;;;;14.55;4.30;;;;;;;16.05;55.93;101461.58;1501752;93;21659;-64
2021/12/11 11:42:36;;;;;;;21.65;5.00;;;;;;;16.12;55.79;101467.88;1489740;95;21151;-63
2021/12/11 11:45:06;;;;;;;13.35;3.75;;;;;;;16.15;55.56;101470.42;1489954;95;21091;-68
2021/12/11 11:47:35;;;;;;;8.78;3.70;;;;;;;16.16;55.33;101471.25;1484786;95;21106;-67
2021/12/11 11:50:03;;;;;;;12.98;3.83;;;;;;;16.15;55.37;101467.80;1489627;95;21135;-66
2021/12/11 11:52:33;;;;;;;11.90;4.33;;;;;;;16.14;55.42;101470.45;1591613;89;21101;-62
2021/12/11 11:55:04;;;;;;;12.80;4.28;;;;;;;16.12;55.41;101461.31;1603452;88;21580;-62
2021/12/11 11:57:35;;;;;;;16.55;4.28;;;;;;;16.13;55.51;101471.37;1596976;89;21094;-67